KMTH/MTH METAR and TAF weather

Enter ICAO airport designator
Station Type Date Time Source
KMTH METAR 2020/10/29 16:53 UTC NOAA

KMTH 291653Z AUTO 15005KT 10SM FEW026 31/26 A2995 RMK AO2 SLP141 T03060261


Station Type Date Time Source
KMTH Decoded METAR 2020/10/29 16:53 UTC NOAA

MARATHON AIRPORT, FL, United States (KMTH) 24-44N 81-03W 2M
Oct 29, 2020 - 12:53 PM EDT / 2020.10.29 1653 UTC
Wind: from the SSE (150 degrees) at 6 MPH (5 KT):0
Visibility: 10 mile(s):0
Sky conditions: mostly clear
Temperature: 87.1 F (30.6 C)
Heat index: 100.9 F (38.3 C):1
Dew Point: 79.0 F (26.1 C)
Relative Humidity: 76%
Pressure (altimeter): 29.95 in. Hg (1014 hPa)
ob: KMTH 291653Z AUTO 15005KT 10SM FEW026 31/26 A2995 RMK AO2 SLP141 T03060261
cycle: 17

Station Type Date Time Source
KMTH TAF 2020/10/29 17:58 UTC NOAA

TAF
AMD KMTH 291656Z 2917/3012 13007KT P6SM VCSH FEW025
TEMPO 2917/2918 4SM SHRA BR BKN030
FM292100 14004KT P6SM FEW020 SCT150

Example: see airport list